• Join FlightAware (Why Join?)
  • Login
  • US Flag 
12:42PM EDT


 

Airport Tracker/Info


-or-


 

Live Flight TrackerFlight Track Log ✈ N213SR ✈ 04-May-2013 ✈ KVNC - KCRG

Flight Track Log - Related Links

Times and Time Zones

All times are in EDT time to prevent confusion due to time zone crossing. See the N213SR flight status page for this flight to view local times or setup timezone preferences in your user account.

Time Position Orientation Groundspeed Altitude Reporting Facility
EDT Latitude Longitude Course Direction KTS MPH feet Rate Location/Type
04:03PM 27.1167 -82.4667 20° North 120 138 1,800  Level Tampa TRACON
04:04PM 27.1333 -82.4500 42° Northeast 132 152 2,700 1,020 Climbing Tampa TRACON
04:05PM 27.1667 -82.4333 24° Northeast 134 154 3,700 840 Climbing Tampa TRACON
04:06PM 27.2000 -82.4000 42° Northeast 147 169 4,500 600 Climbing Tampa TRACON
04:07PM 27.2500 -82.3833 17° North 154 177 5,000 300 Climbing Tampa TRACON
04:08PM 27.2833 -82.3667 24° Northeast 167 192 5,100  Climbing Tampa TRACON
04:09PM 27.3025 -82.3223 20° North  Level FlightAware Approximate
04:09PM 27.3333 -82.3500 16° North 168 193 5,100  Level Tampa TRACON
04:10PM 27.3833 -82.3333 16° North 168 193 5,000 -60 Descending Tampa TRACON
04:11PM 27.4167 -82.3167 24° Northeast 168 193 5,000  Level Tampa TRACON
04:12PM 27.4667 -82.3000 16° North 164 189 5,100  Climbing Tampa TRACON
04:13PM 27.5167 -82.2833 16° North 165 190 5,000 -60 Descending Tampa TRACON
04:14PM 27.5500 -82.2667 24° Northeast 164 189 5,000  Level Tampa TRACON
04:15PM 27.5833 -82.2500 24° Northeast 165 190 5,000  Level Tampa TRACON
04:16PM 27.6333 -82.2333 16° North 156 180 5,000  Level Tampa TRACON
04:17PM 27.6833 -82.2333 360° North 160 184 5,000  Level Tampa TRACON
04:18PM 27.7333 -82.2333 360° North 156 180 5,100  Climbing Tampa TRACON
04:19PM 27.7667 -82.2333 360° North 155 178 5,100 360 Level Tampa TRACON
04:20PM 27.8000 -82.2333 360° North 149 171 5,800 660 Climbing Tampa TRACON
04:21PM 27.8500 -82.2333 360° North 143 165 6,500 600 Climbing Tampa TRACON
04:22PM 27.8833 -82.2333 360° North 141 162 7,100 600 Climbing Tampa TRACON
04:23PM 27.9333 -82.2333 360° North 142 163 7,800 660 Climbing Tampa TRACON
04:24PM 27.9667 -82.2333 360° North 139 160 8,500 660 Climbing Tampa TRACON
04:25PM 28.0000 -82.2333 360° North 140 161 9,100 600 Climbing Tampa TRACON
04:26PM 28.0333 -82.2333 360° North 138 159 9,700 480 Climbing Tampa TRACON
04:27PM 28.0667 -82.2333 360° North 137 158 10,100 180 Climbing Tampa TRACON
04:28PM 28.1167 -82.2333 360° North 148 170 10,100  Level Tampa TRACON
04:29PM 28.1500 -82.2333 360° North 148 170 10,100  Level Tampa TRACON
04:30PM 28.2000 -82.2333 360° North 150 173 10,100  Level Tampa TRACON
04:31PM 28.2500 -82.2333 360° North 152 175 10,100  Level Tampa TRACON
04:32PM 28.2833 -82.2333 360° North 152 175 10,100  Level Tampa TRACON
04:33PM 28.3333 -82.2333 360° North 154 177 10,100  Level Tampa TRACON
04:34PM 28.3667 -82.2333 360° North 153 176 10,100  Level Tampa TRACON
04:35PM 28.4167 -82.2333 360° North 157 181 10,100  Level Tampa TRACON
04:36PM 28.4667 -82.2333 360° North 157 181 10,100  Level Tampa TRACON
04:38PM 28.5656 -82.2283 North 159 183 10,200  Climbing Jacksonville Center
04:39PM 28.6072 -82.2281 360° North 158 182 10,200  Level Jacksonville Center
04:40PM 28.6511 -82.2303 357° North 157 181 10,200  Level Jacksonville Center
04:41PM 28.6969 -82.2297 North 157 181 10,200  Level Jacksonville Center
04:42PM 28.7408 -82.2294 360° North 159 183 10,200 -60 Level Jacksonville Center
04:43PM 28.7847 -82.2244 North 159 183 10,100 -60 Descending Jacksonville Center
04:44PM 28.8181 -82.2053 27° Northeast 172 198 10,100  Level Jacksonville Center
04:45PM 28.8533 -82.1886 22° Northeast 166 191 10,100  Level Jacksonville Center
04:46PM 28.8950 -82.1597 31° Northeast 171 197 10,100  Level Jacksonville Center
04:47PM 28.9386 -82.1239 36° Northeast 171 197 10,100  Level Jacksonville Center
04:48PM 28.9758 -82.0950 34° Northeast 167 192 10,100  Level Jacksonville Center
04:49PM 29.0156 -82.0686 30° Northeast 167 192 10,100  Level Jacksonville Center
04:50PM 29.0569 -82.0397 31° Northeast 168 193 10,100  Level Jacksonville Center
04:51PM 29.1028 -82.0133 27° Northeast 164 189 10,100  Level Jacksonville Center
04:52PM 29.1403 -81.9892 29° Northeast 165 190 10,100  Level Jacksonville Center
04:53PM 29.1775 -81.9628 32° Northeast 166 191 10,100  Level Jacksonville Center
04:54PM 29.2169 -81.9386 28° Northeast 166 191 10,100  Level Jacksonville Center
04:55PM 29.2608 -81.9239 16° North 161 185 10,100  Level Jacksonville Center
04:56PM 29.3003 -81.9067 21° North 162 186 10,100  Level Jacksonville Center
04:57PM 29.3439 -81.8919 16° North 161 185 10,100 -240 Level Jacksonville Center
04:58PM 29.3897 -81.8772 16° North 165 190 9,700 -480 Descending Jacksonville Center
04:59PM 29.4439 -81.8553 19° North 181 208 9,100 -600 Descending Jacksonville Center
05:00PM 29.4917 -81.8381 17° North 182 209 8,600 -540 Descending Jacksonville Center
05:01PM 29.5333 -81.8233 17° North 180 207 8,100 -540 Descending Jacksonville Center
05:02PM 29.5833 -81.8036 19° North 187 215 7,600 -540 Descending Jacksonville Center
05:03PM 29.6333 -81.7839 19° North 187 215 7,100 -600 Descending Jacksonville Center
05:04PM 29.6833 -81.7642 19° North 190 219 6,500 -480 Descending Jacksonville Center
05:05PM 29.7289 -81.7469 18° North 191 220 6,200 -240 Descending Jacksonville Center
05:06PM 29.7853 -81.7272 17° North 174 200 6,100 -60 Descending Jacksonville Center
05:07PM 29.8331 -81.7075 20° North 167 192 6,100  Level Jacksonville Center
05:08PM 29.8642 -81.6950 19° North 166 191 6,100  Level Jacksonville Center
05:09PM 29.9225 -81.6750 17° North 172 198 6,100  Level Jacksonville Center
05:10PM 29.9578 -81.6628 17° North 160 184 6,100  Level Jacksonville Center
05:11PM 29.9953 -81.6383 29° Northeast 150 173 6,100 -360 Level Jacksonville Center
05:12PM 30.0200 -81.6019 52° Northeast 143 165 5,400 -720 Descending Jacksonville Center
05:13PM 30.0486 -81.5631 50° Northeast 134 154 4,600 -720 Descending Jacksonville Center
05:14PM 30.0672 -81.5342 53° Northeast 124 143 3,900 -780 Descending Jacksonville Center
05:15PM 30.0836 -81.5028 59° Northeast 106 122 3,200 -420 Descending Jacksonville Center
05:16PM 30.1022 -81.4783 49° Northeast 102 117 3,100 -300 Descending Jacksonville Center
05:17PM 30.1228 -81.4517 48° Northeast 111 128 2,600 -540 Descending Jacksonville Center
05:18PM 30.1433 -81.4250 48° Northeast 112 129 2,100 -300 Descending Jacksonville Center
05:19PM 30.1597 -81.4008 52° Northeast 95 109 2,000  Descending Jacksonville Center
05:20PM 30.1844 -81.3836 31° Northeast 121 139 2,100  Climbing Jacksonville Center
05:21PM 30.2203 -81.3972 342° North 151 174 2,100 -60 Level Jacksonville Center
05:22PM 30.2539 -81.4186 331° Northwest 146 168 2,000 -360 Descending Jacksonville Center
05:23PM 30.2856 -81.4542 316° Northwest 142 163 1,400 -600 Descending Jacksonville Center
05:24PM 30.3067 -81.4850 308° West 141 162 800 -420 Descending Jacksonville Center
05:25PM 30.3133 -81.5161 284° West 92 106 600 -240 Descending Jacksonville Center
05:27PM 30.3333 -81.5000 North  Level FlightAware Approximate
05:34PM 30.3363 -81.5144 North  Level Estimated